sensor_id;sensor_type;location;lat;lon;timestamp;P1;durP1;ratioP1;P2;durP2;ratioP2
55202;SDS011;41077;52.956;6.796;2023-07-13T00:01:11;10.82;;;3.65;;
55202;SDS011;41077;52.956;6.796;2023-07-13T00:03:37;13.13;;;4.15;;
55202;SDS011;41077;52.956;6.796;2023-07-13T00:06:06;10.32;;;3.25;;
55202;SDS011;41077;52.956;6.796;2023-07-13T00:08:32;8.13;;;3.58;;
55202;SDS011;41077;52.956;6.796;2023-07-13T00:10:59;7.78;;;3.70;;
55202;SDS011;41077;52.956;6.796;2023-07-13T00:13:25;13.43;;;4.30;;
55202;SDS011;41077;52.956;6.796;2023-07-13T00:15:51;9.07;;;2.72;;
55202;SDS011;41077;52.956;6.796;2023-07-13T00:18:19;10.50;;;3.22;;
55202;SDS011;41077;52.956;6.796;2023-07-13T00:20:45;10.57;;;3.40;;
55202;SDS011;41077;52.956;6.796;2023-07-13T00:23:11;12.85;;;3.92;;
55202;SDS011;41077;52.956;6.796;2023-07-13T00:25:38;8.77;;;3.58;;
55202;SDS011;41077;52.956;6.796;2023-07-13T00:28:04;8.38;;;2.78;;
55202;SDS011;41077;52.956;6.796;2023-07-13T00:30:30;12.15;;;4.55;;
55202;SDS011;41077;52.956;6.796;2023-07-13T00:32:56;16.58;;;3.70;;
55202;SDS011;41077;52.956;6.796;2023-07-13T00:35:22;15.13;;;3.95;;
55202;SDS011;41077;52.956;6.796;2023-07-13T00:37:48;13.40;;;3.22;;
55202;SDS011;41077;52.956;6.796;2023-07-13T00:40:15;9.43;;;3.00;;
55202;SDS011;41077;52.956;6.796;2023-07-13T00:42:41;12.93;;;3.47;;
55202;SDS011;41077;52.956;6.796;2023-07-13T00:47:55;13.48;;;3.47;;
55202;SDS011;41077;52.956;6.796;2023-07-13T00:50:22;8.43;;;3.40;;
55202;SDS011;41077;52.956;6.796;2023-07-13T00:52:49;11.30;;;3.40;;
55202;SDS011;41077;52.956;6.796;2023-07-13T00:55:16;14.77;;;4.18;;
55202;SDS011;41077;52.956;6.796;2023-07-13T00:57:43;12.32;;;3.45;;
55202;SDS011;41077;52.956;6.796;2023-07-13T01:00:09;13.63;;;3.67;;
55202;SDS011;41077;52.956;6.796;2023-07-13T01:02:41;13.63;;;4.15;;
55202;SDS011;41077;52.956;6.796;2023-07-13T01:05:09;9.88;;;3.25;;
55202;SDS011;41077;52.956;6.796;2023-07-13T01:07:35;13.93;;;3.42;;
55202;SDS011;41077;52.956;6.796;2023-07-13T01:10:02;13.23;;;4.32;;
55202;SDS011;41077;52.956;6.796;2023-07-13T01:12:28;12.23;;;4.05;;
55202;SDS011;41077;52.956;6.796;2023-07-13T01:14:59;15.32;;;4.15;;
55202;SDS011;41077;52.956;6.796;2023-07-13T01:17:26;11.93;;;4.00;;
55202;SDS011;41077;52.956;6.796;2023-07-13T01:19:52;11.07;;;4.03;;
55202;SDS011;41077;52.956;6.796;2023-07-13T01:22:19;15.45;;;4.85;;
55202;SDS011;41077;52.956;6.796;2023-07-13T01:24:50;16.45;;;4.07;;
55202;SDS011;41077;52.956;6.796;2023-07-13T01:27:17;9.98;;;3.55;;
55202;SDS011;41077;52.956;6.796;2023-07-13T01:29:44;16.77;;;4.32;;
55202;SDS011;41077;52.956;6.796;2023-07-13T01:32:14;11.68;;;4.75;;
55202;SDS011;41077;52.956;6.796;2023-07-13T01:34:40;11.48;;;3.78;;
55202;SDS011;41077;52.956;6.796;2023-07-13T01:37:08;11.60;;;3.45;;
55202;SDS011;41077;52.956;6.796;2023-07-13T01:39:34;8.95;;;4.20;;
55202;SDS011;41077;52.956;6.796;2023-07-13T01:42:00;16.02;;;4.00;;
55202;SDS011;41077;52.956;6.796;2023-07-13T01:44:26;10.20;;;3.80;;
55202;SDS011;41077;52.956;6.796;2023-07-13T01:46:52;14.43;;;4.47;;
55202;SDS011;41077;52.956;6.796;2023-07-13T01:49:19;13.63;;;3.97;;
55202;SDS011;41077;52.956;6.796;2023-07-13T01:51:45;12.75;;;3.97;;
55202;SDS011;41077;52.956;6.796;2023-07-13T01:54:11;14.43;;;3.67;;
55202;SDS011;41077;52.956;6.796;2023-07-13T01:56:37;15.48;;;4.20;;
55202;SDS011;41077;52.956;6.796;2023-07-13T01:59:03;13.77;;;4.25;;
55202;SDS011;41077;52.956;6.796;2023-07-13T02:01:29;13.75;;;3.83;;
55202;SDS011;41077;52.956;6.796;2023-07-13T02:03:55;19.60;;;5.75;;
55202;SDS011;41077;52.956;6.796;2023-07-13T02:06:22;9.55;;;3.47;;
55202;SDS011;41077;52.956;6.796;2023-07-13T02:08:48;13.18;;;3.60;;
55202;SDS011;41077;52.956;6.796;2023-07-13T02:11:14;17.67;;;4.40;;
55202;SDS011;41077;52.956;6.796;2023-07-13T02:13:40;16.02;;;4.22;;
55202;SDS011;41077;52.956;6.796;2023-07-13T02:16:06;16.02;;;4.55;;
55202;SDS011;41077;52.956;6.796;2023-07-13T02:18:32;17.45;;;4.00;;
55202;SDS011;41077;52.956;6.796;2023-07-13T02:20:58;11.75;;;4.97;;
55202;SDS011;41077;52.956;6.796;2023-07-13T02:23:24;13.77;;;3.78;;
55202;SDS011;41077;52.956;6.796;2023-07-13T02:25:54;16.13;;;4.25;;
55202;SDS011;41077;52.956;6.796;2023-07-13T02:28:20;17.50;;;4.30;;
55202;SDS011;41077;52.956;6.796;2023-07-13T02:30:46;16.38;;;4.70;;
55202;SDS011;41077;52.956;6.796;2023-07-13T02:33:12;13.13;;;4.32;;
55202;SDS011;41077;52.956;6.796;2023-07-13T02:35:38;17.88;;;4.30;;
55202;SDS011;41077;52.956;6.796;2023-07-13T02:38:05;15.43;;;4.55;;
55202;SDS011;41077;52.956;6.796;2023-07-13T02:40:31;13.98;;;4.03;;
55202;SDS011;41077;52.956;6.796;2023-07-13T02:43:00;19.33;;;7.18;;
55202;SDS011;41077;52.956;6.796;2023-07-13T02:45:26;17.55;;;4.15;;
55202;SDS011;41077;52.956;6.796;2023-07-13T02:47:52;16.30;;;5.07;;
55202;SDS011;41077;52.956;6.796;2023-07-13T02:50:19;16.20;;;3.85;;
55202;SDS011;41077;52.956;6.796;2023-07-13T02:52:45;14.05;;;4.22;;
55202;SDS011;41077;52.956;6.796;2023-07-13T02:55:11;14.48;;;5.13;;
55202;SDS011;41077;52.956;6.796;2023-07-13T02:57:37;16.42;;;4.53;;
55202;SDS011;41077;52.956;6.796;2023-07-13T03:00:03;12.68;;;4.85;;
55202;SDS011;41077;52.956;6.796;2023-07-13T03:02:31;17.77;;;3.92;;
55202;SDS011;41077;52.956;6.796;2023-07-13T03:04:57;18.05;;;4.00;;
55202;SDS011;41077;52.956;6.796;2023-07-13T03:07:23;15.98;;;4.57;;
55202;SDS011;41077;52.956;6.796;2023-07-13T03:09:53;21.27;;;5.10;;
55202;SDS011;41077;52.956;6.796;2023-07-13T03:12:20;22.00;;;5.35;;
55202;SDS011;41077;52.956;6.796;2023-07-13T03:14:46;20.15;;;4.00;;
55202;SDS011;41077;52.956;6.796;2023-07-13T03:17:12;17.83;;;4.72;;
55202;SDS011;41077;52.956;6.796;2023-07-13T03:19:38;14.90;;;4.18;;
55202;SDS011;41077;52.956;6.796;2023-07-13T03:22:04;15.48;;;4.30;;
55202;SDS011;41077;52.956;6.796;2023-07-13T03:24:32;13.32;;;5.20;;
55202;SDS011;41077;52.956;6.796;2023-07-13T03:26:58;20.13;;;4.20;;
55202;SDS011;41077;52.956;6.796;2023-07-13T03:29:24;11.02;;;4.05;;
55202;SDS011;41077;52.956;6.796;2023-07-13T03:31:50;10.75;;;3.60;;
55202;SDS011;41077;52.956;6.796;2023-07-13T03:34:16;16.00;;;4.15;;
55202;SDS011;41077;52.956;6.796;2023-07-13T03:36:42;13.95;;;4.10;;
55202;SDS011;41077;52.956;6.796;2023-07-13T03:39:08;16.85;;;4.35;;
55202;SDS011;41077;52.956;6.796;2023-07-13T03:41:34;16.77;;;4.45;;
55202;SDS011;41077;52.956;6.796;2023-07-13T03:44:00;16.70;;;4.28;;
55202;SDS011;41077;52.956;6.796;2023-07-13T03:46:26;22.00;;;4.93;;
55202;SDS011;41077;52.956;6.796;2023-07-13T03:48:53;24.77;;;5.35;;
55202;SDS011;41077;52.956;6.796;2023-07-13T03:51:19;18.05;;;6.30;;
55202;SDS011;41077;52.956;6.796;2023-07-13T03:53:45;16.17;;;4.50;;
55202;SDS011;41077;52.956;6.796;2023-07-13T03:56:12;14.77;;;3.72;;
55202;SDS011;41077;52.956;6.796;2023-07-13T03:58:40;15.63;;;4.63;;
55202;SDS011;41077;52.956;6.796;2023-07-13T04:01:08;18.52;;;5.20;;
55202;SDS011;41077;52.956;6.796;2023-07-13T04:03:34;22.92;;;5.55;;
55202;SDS011;41077;52.956;6.796;2023-07-13T04:06:01;19.33;;;4.57;;
55202;SDS011;41077;52.956;6.796;2023-07-13T04:08:28;21.48;;;4.70;;
55202;SDS011;41077;52.956;6.796;2023-07-13T04:10:55;24.13;;;4.65;;
55202;SDS011;41077;52.956;6.796;2023-07-13T04:13:21;17.70;;;5.18;;
55202;SDS011;41077;52.956;6.796;2023-07-13T04:15:47;16.38;;;4.70;;
55202;SDS011;41077;52.956;6.796;2023-07-13T04:18:13;17.85;;;4.97;;
55202;SDS011;41077;52.956;6.796;2023-07-13T04:20:39;19.40;;;5.22;;
55202;SDS011;41077;52.956;6.796;2023-07-13T04:23:06;15.00;;;5.10;;
55202;SDS011;41077;52.956;6.796;2023-07-13T04:25:32;15.82;;;5.10;;
55202;SDS011;41077;52.956;6.796;2023-07-13T04:27:58;14.00;;;5.10;;
55202;SDS011;41077;52.956;6.796;2023-07-13T04:30:24;22.42;;;7.15;;
55202;SDS011;41077;52.956;6.796;2023-07-13T04:32:51;22.35;;;5.28;;
55202;SDS011;41077;52.956;6.796;2023-07-13T04:35:18;15.63;;;5.75;;
55202;SDS011;41077;52.956;6.796;2023-07-13T04:37:46;18.20;;;5.78;;
55202;SDS011;41077;52.956;6.796;2023-07-13T04:40:13;15.82;;;5.47;;
55202;SDS011;41077;52.956;6.796;2023-07-13T04:42:39;20.05;;;6.07;;
55202;SDS011;41077;52.956;6.796;2023-07-13T04:45:06;20.30;;;5.75;;
55202;SDS011;41077;52.956;6.796;2023-07-13T04:47:33;15.30;;;5.65;;
55202;SDS011;41077;52.956;6.796;2023-07-13T04:49:59;16.58;;;5.10;;
55202;SDS011;41077;52.956;6.796;2023-07-13T04:52:25;25.63;;;6.07;;
55202;SDS011;41077;52.956;6.796;2023-07-13T04:54:51;16.55;;;5.40;;
55202;SDS011;41077;52.956;6.796;2023-07-13T04:57:17;18.45;;;6.22;;
55202;SDS011;41077;52.956;6.796;2023-07-13T04:59:43;16.60;;;5.75;;
55202;SDS011;41077;52.956;6.796;2023-07-13T05:02:09;16.98;;;6.72;;
55202;SDS011;41077;52.956;6.796;2023-07-13T05:04:36;17.25;;;5.72;;
55202;SDS011;41077;52.956;6.796;2023-07-13T05:07:02;12.55;;;5.55;;
55202;SDS011;41077;52.956;6.796;2023-07-13T05:09:28;28.15;;;6.57;;
55202;SDS011;41077;52.956;6.796;2023-07-13T05:11:54;18.38;;;5.63;;
55202;SDS011;41077;52.956;6.796;2023-07-13T05:14:20;16.30;;;5.40;;
55202;SDS011;41077;52.956;6.796;2023-07-13T05:16:46;18.63;;;6.32;;
55202;SDS011;41077;52.956;6.796;2023-07-13T05:19:12;21.13;;;6.18;;
55202;SDS011;41077;52.956;6.796;2023-07-13T05:21:38;26.10;;;6.38;;
55202;SDS011;41077;52.956;6.796;2023-07-13T05:24:04;13.85;;;5.15;;
55202;SDS011;41077;52.956;6.796;2023-07-13T05:26:30;22.80;;;5.47;;
55202;SDS011;41077;52.956;6.796;2023-07-13T05:28:56;20.40;;;5.60;;
55202;SDS011;41077;52.956;6.796;2023-07-13T05:31:22;18.80;;;6.13;;
55202;SDS011;41077;52.956;6.796;2023-07-13T05:33:48;14.25;;;5.40;;
55202;SDS011;41077;52.956;6.796;2023-07-13T05:36:14;15.80;;;5.95;;
55202;SDS011;41077;52.956;6.796;2023-07-13T05:38:40;14.55;;;5.45;;
55202;SDS011;41077;52.956;6.796;2023-07-13T05:41:06;15.52;;;5.38;;
55202;SDS011;41077;52.956;6.796;2023-07-13T05:43:32;14.60;;;5.47;;
55202;SDS011;41077;52.956;6.796;2023-07-13T05:45:58;17.70;;;5.18;;
55202;SDS011;41077;52.956;6.796;2023-07-13T05:48:24;20.48;;;5.32;;
55202;SDS011;41077;52.956;6.796;2023-07-13T05:50:50;14.45;;;4.57;;
55202;SDS011;41077;52.956;6.796;2023-07-13T05:53:17;27.42;;;6.60;;
55202;SDS011;41077;52.956;6.796;2023-07-13T05:55:43;15.95;;;5.70;;
55202;SDS011;41077;52.956;6.796;2023-07-13T05:58:16;18.65;;;4.90;;
55202;SDS011;41077;52.956;6.796;2023-07-13T06:00:42;16.08;;;5.47;;
55202;SDS011;41077;52.956;6.796;2023-07-13T06:03:08;19.90;;;5.90;;
55202;SDS011;41077;52.956;6.796;2023-07-13T06:05:35;16.92;;;5.47;;
55202;SDS011;41077;52.956;6.796;2023-07-13T06:08:03;18.25;;;4.80;;
55202;SDS011;41077;52.956;6.796;2023-07-13T06:10:28;19.55;;;5.10;;
55202;SDS011;41077;52.956;6.796;2023-07-13T06:12:57;15.30;;;4.70;;
55202;SDS011;41077;52.956;6.796;2023-07-13T06:15:22;13.07;;;4.97;;
55202;SDS011;41077;52.956;6.796;2023-07-13T06:17:48;15.40;;;5.22;;
55202;SDS011;41077;52.956;6.796;2023-07-13T06:20:14;15.93;;;4.93;;
55202;SDS011;41077;52.956;6.796;2023-07-13T06:22:39;15.20;;;4.63;;
55202;SDS011;41077;52.956;6.796;2023-07-13T06:25:05;17.92;;;5.07;;
55202;SDS011;41077;52.956;6.796;2023-07-13T06:27:31;13.25;;;4.55;;
55202;SDS011;41077;52.956;6.796;2023-07-13T06:29:57;20.63;;;5.10;;
55202;SDS011;41077;52.956;6.796;2023-07-13T06:32:23;15.07;;;5.38;;
55202;SDS011;41077;52.956;6.796;2023-07-13T06:34:48;12.98;;;4.90;;
55202;SDS011;41077;52.956;6.796;2023-07-13T06:37:16;10.32;;;4.03;;
55202;SDS011;41077;52.956;6.796;2023-07-13T06:39:42;15.48;;;5.43;;
55202;SDS011;41077;52.956;6.796;2023-07-13T06:42:08;13.00;;;4.70;;
55202;SDS011;41077;52.956;6.796;2023-07-13T06:44:34;12.75;;;4.90;;
55202;SDS011;41077;52.956;6.796;2023-07-13T06:47:00;12.98;;;4.80;;
55202;SDS011;41077;52.956;6.796;2023-07-13T06:49:25;15.75;;;4.68;;
55202;SDS011;41077;52.956;6.796;2023-07-13T06:51:51;14.40;;;4.47;;
55202;SDS011;41077;52.956;6.796;2023-07-13T06:54:17;10.23;;;3.92;;
55202;SDS011;41077;52.956;6.796;2023-07-13T06:56:42;11.27;;;3.97;;
55202;SDS011;41077;52.956;6.796;2023-07-13T06:59:08;10.10;;;3.92;;
55202;SDS011;41077;52.956;6.796;2023-07-13T07:01:34;19.20;;;5.28;;
55202;SDS011;41077;52.956;6.796;2023-07-13T07:03:59;13.20;;;4.50;;
55202;SDS011;41077;52.956;6.796;2023-07-13T07:06:25;10.35;;;4.30;;
55202;SDS011;41077;52.956;6.796;2023-07-13T07:08:51;14.98;;;4.65;;
55202;SDS011;41077;52.956;6.796;2023-07-13T07:11:18;10.35;;;4.20;;
55202;SDS011;41077;52.956;6.796;2023-07-13T07:13:48;13.05;;;4.43;;
55202;SDS011;41077;52.956;6.796;2023-07-13T07:16:15;13.20;;;3.90;;
55202;SDS011;41077;52.956;6.796;2023-07-13T07:18:40;12.05;;;3.75;;
55202;SDS011;41077;52.956;6.796;2023-07-13T07:21:06;15.45;;;3.65;;
55202;SDS011;41077;52.956;6.796;2023-07-13T07:23:32;11.50;;;3.45;;
55202;SDS011;41077;52.956;6.796;2023-07-13T07:25:58;8.43;;;3.10;;
55202;SDS011;41077;52.956;6.796;2023-07-13T07:28:24;7.22;;;3.10;;
55202;SDS011;41077;52.956;6.796;2023-07-13T07:30:52;15.02;;;4.10;;
55202;SDS011;41077;52.956;6.796;2023-07-13T07:33:19;9.90;;;3.20;;
55202;SDS011;41077;52.956;6.796;2023-07-13T07:35:44;20.73;;;3.60;;
55202;SDS011;41077;52.956;6.796;2023-07-13T07:38:10;11.05;;;3.60;;
55202;SDS011;41077;52.956;6.796;2023-07-13T07:40:37;9.68;;;4.13;;
55202;SDS011;41077;52.956;6.796;2023-07-13T07:43:03;12.45;;;3.58;;
55202;SDS011;41077;52.956;6.796;2023-07-13T07:45:29;9.50;;;4.07;;
55202;SDS011;41077;52.956;6.796;2023-07-13T07:47:55;16.90;;;4.15;;
55202;SDS011;41077;52.956;6.796;2023-07-13T07:50:24;13.07;;;4.00;;
55202;SDS011;41077;52.956;6.796;2023-07-13T07:52:53;12.75;;;4.20;;
55202;SDS011;41077;52.956;6.796;2023-07-13T07:55:21;15.10;;;4.55;;
55202;SDS011;41077;52.956;6.796;2023-07-13T07:57:47;12.38;;;5.43;;
55202;SDS011;41077;52.956;6.796;2023-07-13T08:00:13;17.88;;;4.47;;
55202;SDS011;41077;52.956;6.796;2023-07-13T08:02:40;14.48;;;4.15;;
55202;SDS011;41077;52.956;6.796;2023-07-13T08:05:09;14.02;;;5.25;;
55202;SDS011;41077;52.956;6.796;2023-07-13T08:07:36;9.23;;;3.97;;
55202;SDS011;41077;52.956;6.796;2023-07-13T08:10:03;8.75;;;3.97;;
55202;SDS011;41077;52.956;6.796;2023-07-13T08:12:33;9.27;;;3.90;;
55202;SDS011;41077;52.956;6.796;2023-07-13T08:14:59;12.20;;;4.68;;
55202;SDS011;41077;52.956;6.796;2023-07-13T08:17:25;10.57;;;4.28;;
55202;SDS011;41077;52.956;6.796;2023-07-13T08:19:51;11.63;;;3.75;;
55202;SDS011;41077;52.956;6.796;2023-07-13T08:22:17;14.88;;;4.60;;
55202;SDS011;41077;52.956;6.796;2023-07-13T08:24:43;11.00;;;4.50;;
55202;SDS011;41077;52.956;6.796;2023-07-13T08:27:09;13.15;;;4.78;;
55202;SDS011;41077;52.956;6.796;2023-07-13T08:29:36;11.88;;;4.22;;
55202;SDS011;41077;52.956;6.796;2023-07-13T08:32:03;17.38;;;5.05;;
55202;SDS011;41077;52.956;6.796;2023-07-13T08:34:31;19.92;;;5.32;;
55202;SDS011;41077;52.956;6.796;2023-07-13T08:36:56;13.90;;;4.50;;
55202;SDS011;41077;52.956;6.796;2023-07-13T08:39:22;10.73;;;4.53;;
55202;SDS011;41077;52.956;6.796;2023-07-13T08:41:49;10.85;;;4.45;;
55202;SDS011;41077;52.956;6.796;2023-07-13T08:44:27;17.15;;;4.85;;
55202;SDS011;41077;52.956;6.796;2023-07-13T08:47:04;12.10;;;4.05;;
55202;SDS011;41077;52.956;6.796;2023-07-13T08:49:31;12.60;;;4.65;;
55202;SDS011;41077;52.956;6.796;2023-07-13T08:52:04;13.50;;;4.20;;
55202;SDS011;41077;52.956;6.796;2023-07-13T08:54:43;13.45;;;4.00;;
55202;SDS011;41077;52.956;6.796;2023-07-13T08:57:14;9.40;;;3.15;;
55202;SDS011;41077;52.956;6.796;2023-07-13T08:59:45;11.30;;;3.70;;
55202;SDS011;41077;52.956;6.796;2023-07-13T09:02:16;10.18;;;4.10;;
55202;SDS011;41077;52.956;6.796;2023-07-13T09:15:51;7.90;;;2.92;;
55202;SDS011;41077;52.956;6.796;2023-07-13T09:18:26;6.05;;;2.80;;
55202;SDS011;41077;52.956;6.796;2023-07-13T09:23:20;9.27;;;3.00;;
55202;SDS011;41077;52.956;6.796;2023-07-13T09:25:47;10.55;;;3.75;;
55202;SDS011;41077;52.956;6.796;2023-07-13T09:28:20;10.20;;;4.25;;
55202;SDS011;41077;52.956;6.796;2023-07-13T09:33:18;5.63;;;3.55;;
55202;SDS011;41077;52.956;6.796;2023-07-13T09:35:44;13.60;;;4.18;;
55202;SDS011;41077;52.956;6.796;2023-07-13T09:38:12;10.40;;;3.90;;
55202;SDS011;41077;52.956;6.796;2023-07-13T09:43:05;15.63;;;4.22;;
55202;SDS011;41077;52.956;6.796;2023-07-13T09:45:33;10.38;;;4.10;;
55202;SDS011;41077;52.956;6.796;2023-07-13T09:48:03;12.27;;;4.85;;
55202;SDS011;41077;52.956;6.796;2023-07-13T09:50:30;17.00;;;5.80;;
55202;SDS011;41077;52.956;6.796;2023-07-13T09:52:56;9.13;;;4.30;;
55202;SDS011;41077;52.956;6.796;2023-07-13T09:57:51;5.72;;;2.25;;
55202;SDS011;41077;52.956;6.796;2023-07-13T10:00:27;6.35;;;2.00;;
55202;SDS011;41077;52.956;6.796;2023-07-13T10:02:58;4.38;;;2.63;;
55202;SDS011;41077;52.956;6.796;2023-07-13T10:05:24;5.22;;;2.85;;
55202;SDS011;41077;52.956;6.796;2023-07-13T10:07:51;3.28;;;2.55;;
55202;SDS011;41077;52.956;6.796;2023-07-13T10:10:18;5.70;;;3.70;;
55202;SDS011;41077;52.956;6.796;2023-07-13T10:12:46;3.17;;;2.20;;
55202;SDS011;41077;52.956;6.796;2023-07-13T10:15:18;3.38;;;2.22;;
55202;SDS011;41077;52.956;6.796;2023-07-13T10:20:15;3.28;;;2.10;;
55202;SDS011;41077;52.956;6.796;2023-07-13T10:22:51;3.88;;;2.25;;
55202;SDS011;41077;52.956;6.796;2023-07-13T10:25:32;9.68;;;2.10;;
55202;SDS011;41077;52.956;6.796;2023-07-13T10:28:02;6.45;;;2.33;;
55202;SDS011;41077;52.956;6.796;2023-07-13T10:30:35;4.75;;;2.28;;
55202;SDS011;41077;52.956;6.796;2023-07-13T10:33:11;3.33;;;2.03;;
55202;SDS011;41077;52.956;6.796;2023-07-13T10:35:39;2.95;;;2.30;;
55202;SDS011;41077;52.956;6.796;2023-07-13T10:38:11;4.50;;;2.30;;
55202;SDS011;41077;52.956;6.796;2023-07-13T10:41:02;5.28;;;2.28;;
55202;SDS011;41077;52.956;6.796;2023-07-13T10:43:39;2.80;;;2.25;;
55202;SDS011;41077;52.956;6.796;2023-07-13T10:46:10;4.95;;;2.60;;
55202;SDS011;41077;52.956;6.796;2023-07-13T10:48:40;5.35;;;2.88;;
55202;SDS011;41077;52.956;6.796;2023-07-13T10:51:07;6.75;;;2.92;;
55202;SDS011;41077;52.956;6.796;2023-07-13T10:53:36;4.93;;;2.42;;
55202;SDS011;41077;52.956;6.796;2023-07-13T10:56:06;6.85;;;3.38;;
55202;SDS011;41077;52.956;6.796;2023-07-13T10:58:42;6.80;;;3.08;;
55202;SDS011;41077;52.956;6.796;2023-07-13T11:01:10;4.50;;;3.00;;
55202;SDS011;41077;52.956;6.796;2023-07-13T11:06:42;6.65;;;3.25;;
55202;SDS011;41077;52.956;6.796;2023-07-13T11:12:01;5.50;;;2.63;;
55202;SDS011;41077;52.956;6.796;2023-07-13T11:14:36;11.00;;;4.37;;
55202;SDS011;41077;52.956;6.796;2023-07-13T11:22:50;7.70;;;4.97;;
55202;SDS011;41077;52.956;6.796;2023-07-13T11:27:50;7.50;;;5.60;;
55202;SDS011;41077;52.956;6.796;2023-07-13T11:33:10;8.77;;;5.65;;
55202;SDS011;41077;52.956;6.796;2023-07-13T11:36:02;9.73;;;6.30;;
55202;SDS011;41077;52.956;6.796;2023-07-13T11:40:59;9.32;;;5.28;;
55202;SDS011;41077;52.956;6.796;2023-07-13T11:43:28;11.95;;;5.95;;
55202;SDS011;41077;52.956;6.796;2023-07-13T11:45:54;9.20;;;4.15;;
55202;SDS011;41077;52.956;6.796;2023-07-13T11:48:21;12.20;;;4.55;;
55202;SDS011;41077;52.956;6.796;2023-07-13T11:51:05;10.05;;;4.43;;
55202;SDS011;41077;52.956;6.796;2023-07-13T11:53:39;14.45;;;5.22;;
55202;SDS011;41077;52.956;6.796;2023-07-13T11:56:05;7.53;;;4.47;;
55202;SDS011;41077;52.956;6.796;2023-07-13T11:58:32;9.63;;;4.88;;
55202;SDS011;41077;52.956;6.796;2023-07-13T12:00:59;7.07;;;5.03;;
55202;SDS011;41077;52.956;6.796;2023-07-13T12:03:27;11.25;;;4.75;;
55202;SDS011;41077;52.956;6.796;2023-07-13T12:08:39;10.63;;;4.15;;
55202;SDS011;41077;52.956;6.796;2023-07-13T12:11:06;8.77;;;4.45;;
55202;SDS011;41077;52.956;6.796;2023-07-13T12:13:41;10.00;;;4.30;;
55202;SDS011;41077;52.956;6.796;2023-07-13T12:18:55;12.07;;;3.60;;
55202;SDS011;41077;52.956;6.796;2023-07-13T12:21:24;7.88;;;3.63;;
55202;SDS011;41077;52.956;6.796;2023-07-13T12:23:58;8.45;;;4.18;;
55202;SDS011;41077;52.956;6.796;2023-07-13T12:26:27;7.03;;;4.13;;
55202;SDS011;41077;52.956;6.796;2023-07-13T12:28:55;7.93;;;2.95;;
55202;SDS011;41077;52.956;6.796;2023-07-13T12:34:08;6.70;;;3.30;;
55202;SDS011;41077;52.956;6.796;2023-07-13T12:36:40;7.88;;;3.90;;
55202;SDS011;41077;52.956;6.796;2023-07-13T12:41:47;6.72;;;2.95;;
55202;SDS011;41077;52.956;6.796;2023-07-13T12:44:15;3.55;;;2.55;;
55202;SDS011;41077;52.956;6.796;2023-07-13T12:46:56;9.30;;;3.47;;
55202;SDS011;41077;52.956;6.796;2023-07-13T12:49:25;4.55;;;2.10;;
55202;SDS011;41077;52.956;6.796;2023-07-13T12:51:57;5.72;;;2.20;;
55202;SDS011;41077;52.956;6.796;2023-07-13T12:54:25;3.92;;;2.28;;
55202;SDS011;41077;52.956;6.796;2023-07-13T12:56:52;4.55;;;2.00;;
55202;SDS011;41077;52.956;6.796;2023-07-13T12:59:20;6.57;;;2.40;;
55202;SDS011;41077;52.956;6.796;2023-07-13T13:01:47;8.35;;;2.45;;
55202;SDS011;41077;52.956;6.796;2023-07-13T13:04:14;5.45;;;1.83;;
55202;SDS011;41077;52.956;6.796;2023-07-13T13:06:41;5.47;;;1.98;;
55202;SDS011;41077;52.956;6.796;2023-07-13T13:09:11;8.00;;;2.25;;
55202;SDS011;41077;52.956;6.796;2023-07-13T13:11:39;3.10;;;1.50;;
55202;SDS011;41077;52.956;6.796;2023-07-13T13:14:06;4.78;;;2.17;;
55202;SDS011;41077;52.956;6.796;2023-07-13T13:16:33;5.60;;;1.83;;
55202;SDS011;41077;52.956;6.796;2023-07-13T13:19:23;5.40;;;1.80;;
55202;SDS011;41077;52.956;6.796;2023-07-13T13:21:53;4.15;;;1.60;;
55202;SDS011;41077;52.956;6.796;2023-07-13T13:24:21;5.00;;;1.50;;
55202;SDS011;41077;52.956;6.796;2023-07-13T13:26:50;3.35;;;1.27;;
55202;SDS011;41077;52.956;6.796;2023-07-13T13:29:21;5.45;;;1.38;;
55202;SDS011;41077;52.956;6.796;2023-07-13T13:31:52;3.65;;;1.45;;
55202;SDS011;41077;52.956;6.796;2023-07-13T13:34:19;6.47;;;1.90;;
55202;SDS011;41077;52.956;6.796;2023-07-13T13:36:46;4.53;;;1.45;;
55202;SDS011;41077;52.956;6.796;2023-07-13T13:39:27;4.47;;;1.70;;
55202;SDS011;41077;52.956;6.796;2023-07-13T13:41:59;5.63;;;2.20;;
55202;SDS011;41077;52.956;6.796;2023-07-13T13:44:25;2.60;;;1.50;;
55202;SDS011;41077;52.956;6.796;2023-07-13T13:46:52;7.07;;;1.58;;
55202;SDS011;41077;52.956;6.796;2023-07-13T13:49:23;8.05;;;1.50;;
55202;SDS011;41077;52.956;6.796;2023-07-13T13:51:51;4.88;;;2.08;;
55202;SDS011;41077;52.956;6.796;2023-07-13T13:54:19;4.25;;;1.67;;
55202;SDS011;41077;52.956;6.796;2023-07-13T13:56:47;7.90;;;1.80;;
55202;SDS011;41077;52.956;6.796;2023-07-13T13:59:14;3.75;;;1.88;;
55202;SDS011;41077;52.956;6.796;2023-07-13T14:01:40;2.67;;;1.70;;
55202;SDS011;41077;52.956;6.796;2023-07-13T14:04:13;5.65;;;1.52;;
55202;SDS011;41077;52.956;6.796;2023-07-13T14:06:42;5.10;;;1.55;;
55202;SDS011;41077;52.956;6.796;2023-07-13T14:09:10;4.35;;;1.58;;
55202;SDS011;41077;52.956;6.796;2023-07-13T14:11:38;5.70;;;1.27;;
55202;SDS011;41077;52.956;6.796;2023-07-13T14:14:08;3.17;;;1.88;;
55202;SDS011;41077;52.956;6.796;2023-07-13T14:16:39;3.13;;;1.25;;
55202;SDS011;41077;52.956;6.796;2023-07-13T14:19:08;7.93;;;1.52;;
55202;SDS011;41077;52.956;6.796;2023-07-13T14:21:36;3.85;;;1.20;;
55202;SDS011;41077;52.956;6.796;2023-07-13T14:24:02;2.70;;;1.35;;
55202;SDS011;41077;52.956;6.796;2023-07-13T14:26:29;5.50;;;1.60;;
55202;SDS011;41077;52.956;6.796;2023-07-13T14:29:00;3.85;;;1.60;;
55202;SDS011;41077;52.956;6.796;2023-07-13T14:31:27;4.65;;;1.50;;
55202;SDS011;41077;52.956;6.796;2023-07-13T14:33:55;4.70;;;1.50;;
55202;SDS011;41077;52.956;6.796;2023-07-13T14:38:52;2.67;;;1.15;;
55202;SDS011;41077;52.956;6.796;2023-07-13T14:41:18;4.75;;;1.50;;
55202;SDS011;41077;52.956;6.796;2023-07-13T14:43:45;5.13;;;1.55;;
55202;SDS011;41077;52.956;6.796;2023-07-13T14:46:18;4.45;;;1.60;;
55202;SDS011;41077;52.956;6.796;2023-07-13T14:49:04;3.45;;;1.85;;
55202;SDS011;41077;52.956;6.796;2023-07-13T14:51:37;7.22;;;1.98;;
55202;SDS011;41077;52.956;6.796;2023-07-13T14:54:03;3.45;;;1.50;;
55202;SDS011;41077;52.956;6.796;2023-07-13T14:56:30;7.07;;;1.40;;
55202;SDS011;41077;52.956;6.796;2023-07-13T14:58:56;6.68;;;1.60;;
55202;SDS011;41077;52.956;6.796;2023-07-13T15:01:22;4.55;;;1.55;;
55202;SDS011;41077;52.956;6.796;2023-07-13T15:03:49;5.97;;;2.00;;
55202;SDS011;41077;52.956;6.796;2023-07-13T15:06:17;4.88;;;2.10;;
55202;SDS011;41077;52.956;6.796;2023-07-13T15:08:44;6.38;;;1.60;;
55202;SDS011;41077;52.956;6.796;2023-07-13T15:11:11;4.88;;;1.50;;
55202;SDS011;41077;52.956;6.796;2023-07-13T15:13:37;8.35;;;1.63;;
55202;SDS011;41077;52.956;6.796;2023-07-13T15:16:16;3.83;;;2.03;;
55202;SDS011;41077;52.956;6.796;2023-07-13T15:18:46;5.97;;;1.80;;
55202;SDS011;41077;52.956;6.796;2023-07-13T15:21:18;4.32;;;1.65;;
55202;SDS011;41077;52.956;6.796;2023-07-13T15:26:14;2.80;;;1.70;;
55202;SDS011;41077;52.956;6.796;2023-07-13T15:28:41;6.13;;;1.52;;
55202;SDS011;41077;52.956;6.796;2023-07-13T15:31:16;4.47;;;1.58;;
55202;SDS011;41077;52.956;6.796;2023-07-13T15:33:53;5.82;;;2.10;;
55202;SDS011;41077;52.956;6.796;2023-07-13T15:36:20;2.83;;;1.40;;
55202;SDS011;41077;52.956;6.796;2023-07-13T15:38:47;3.85;;;1.65;;
55202;SDS011;41077;52.956;6.796;2023-07-13T15:41:19;3.85;;;1.92;;
55202;SDS011;41077;52.956;6.796;2023-07-13T15:43:48;5.25;;;1.80;;
55202;SDS011;41077;52.956;6.796;2023-07-13T15:46:17;8.65;;;1.58;;